Time;durP1;ratioP1;P1;durP2;ratioP2;P2;SDS_P1;SDS_P2;PMS_P1;PMS_P2;Temp;Humidity;BMP_temperature;BMP_pressure;BME280_temperature;BME280_humidity;BME280_pressure;Samples;Min_cycle;Max_cycle;Signal;HPM_P1;HPM_P2
2022/05/18 00:01:29;;;;;;;10.98;8.07;;;;;;;18.84;61.28;101759.84;5065427;28;20027;-90
2022/05/18 00:03:55;;;;;;;10.45;7.53;;;;;;;18.81;60.52;101762.69;5078725;28;20028;-90
2022/05/18 00:06:20;;;;;;;11.60;7.05;;;;;;;18.58;61.23;101764.88;5079926;28;20510;-91
2022/05/18 00:08:46;;;;;;;10.07;7.40;;;;;;;18.48;61.45;101755.66;5063871;28;20040;-90
2022/05/18 00:11:18;;;;;;;10.85;7.05;;;;;;;18.60;61.59;101767.44;5082479;28;20115;-90
2022/05/18 00:13:46;;;;;;;11.65;7.47;;;;;;;18.60;61.48;101767.44;5081970;28;20024;-89
2022/05/18 00:16:14;;;;;;;7.30;6.60;;;;;;;18.52;61.32;101759.03;5066643;28;20046;-90
2022/05/18 00:18:39;;;;;;;9.85;7.47;;;;;;;18.53;62.88;101771.47;5082185;28;20294;-91
2022/05/18 00:21:06;;;;;;;13.55;7.70;;;;;;;18.43;63.88;101771.13;5078984;28;20356;-90
2022/05/18 00:23:32;;;;;;;10.05;8.65;;;;;;;18.11;64.81;101781.03;5083690;28;20024;-90
2022/05/18 00:25:57;;;;;;;15.07;8.00;;;;;;;17.96;64.50;101773.88;5080884;28;20036;-90
2022/05/18 00:28:23;;;;;;;8.35;6.40;;;;;;;18.02;63.35;101784.22;5075105;28;20478;-91
2022/05/18 00:30:49;;;;;;;8.35;7.43;;;;;;;17.91;64.41;101775.94;5081194;28;20154;-89
2022/05/18 00:33:14;;;;;;;10.50;7.38;;;;;;;17.76;65.02;101783.84;5077116;28;20510;-90
2022/05/18 00:35:41;;;;;;;10.32;9.23;;;;;;;17.38;67.38;101785.03;5074794;28;20020;-90
2022/05/18 00:38:07;;;;;;;10.98;7.90;;;;;;;17.26;66.76;101773.22;5063073;28;20051;-90
2022/05/18 00:40:37;;;;;;;8.43;6.18;;;;;;;17.43;65.26;101782.97;5077828;28;20059;-91
2022/05/18 00:43:03;;;;;;;7.72;6.78;;;;;;;17.48;65.97;101778.25;5080803;28;20305;-90
2022/05/18 00:45:28;;;;;;;9.02;7.72;;;;;;;17.41;65.51;101780.41;5050479;28;20495;-90
2022/05/18 00:47:54;;;;;;;8.10;6.25;;;;;;;17.40;65.98;101781.34;5043577;28;20462;-89
2022/05/18 00:50:31;;;;;;;12.20;7.03;;;;;;;17.32;64.90;101783.56;5046143;28;20028;-90
2022/05/18 00:53:00;;;;;;;9.50;6.70;;;;;;;17.27;65.74;101781.13;5044430;28;20692;-90
2022/05/18 00:55:29;;;;;;;9.75;6.88;;;;;;;16.99;66.18;101779.06;5042662;28;20141;-89
2022/05/18 00:57:54;;;;;;;11.77;8.15;;;;;;;16.83;68.02;101787.00;5041854;28;20024;-89
2022/05/18 01:00:20;;;;;;;8.87;7.50;;;;;;;16.87;66.96;101782.34;5041912;28;20391;-90
2022/05/18 01:02:52;;;;;;;11.90;7.80;;;;;;;16.95;66.70;101776.63;5042690;28;20288;-90
2022/05/18 01:05:23;;;;;;;11.77;8.30;;;;;;;16.95;66.89;101773.94;5042647;28;20036;-89
2022/05/18 01:07:51;;;;;;;12.32;8.55;;;;;;;16.82;68.66;101782.56;5043908;28;20107;-90
2022/05/18 01:10:17;;;;;;;9.85;7.40;;;;;;;16.88;67.34;101783.19;5043243;28;20058;-90
2022/05/18 01:12:44;;;;;;;8.93;7.85;;;;;;;16.97;66.66;101767.59;5042398;28;20028;-90
2022/05/18 01:15:14;;;;;;;10.25;7.90;;;;;;;17.18;66.23;101783.44;5044056;28;21277;-90
2022/05/18 01:17:42;;;;;;;10.02;8.05;;;;;;;17.26;65.76;101778.56;5041751;28;20032;-89
2022/05/18 01:20:23;;;;;;;10.98;8.00;;;;;;;17.28;65.50;101785.53;5043164;28;20028;-90
2022/05/18 01:22:55;;;;;;;11.10;8.10;;;;;;;17.37;65.53;101778.81;5041380;28;20052;-90
2022/05/18 01:25:47;;;;;;;12.73;8.03;;;;;;;17.52;64.93;101782.47;5041877;28;20052;-90
2022/05/18 01:28:13;;;;;;;;;;;;;;;17.73;62.77;101783.13;5044212;28;20557;-90
2022/05/18 01:30:45;;;;;;;9.13;8.00;;;;;;;17.52;64.83;101772.66;5039398;28;19936;-90
2022/05/18 01:33:11;;;;;;;13.15;8.52;;;;;;;17.34;66.08;101778.97;5041235;28;20164;-90
2022/05/18 01:35:40;;;;;;;11.77;8.43;;;;;;;17.08;67.17;101786.59;5043379;28;20115;-91
2022/05/18 01:38:06;;;;;;;10.82;7.28;;;;;;;16.89;66.77;101777.81;5035855;28;20025;-90
2022/05/18 01:40:40;;;;;;;8.88;7.85;;;;;;;17.00;66.19;101785.25;5043845;28;20491;-90
2022/05/18 01:43:23;;;;;;;16.13;8.15;;;;;;;16.93;66.64;101779.38;5042347;28;20122;-90
2022/05/18 01:45:52;;;;;;;;;;;;;;;17.17;63.95;101787.06;5043601;28;21282;-90
2022/05/18 01:48:21;;;;;;;12.88;7.95;;;;;;;17.00;66.67;101780.78;5043449;28;19924;-89
2022/05/18 01:50:47;;;;;;;10.73;7.97;;;;;;;16.86;68.05;101782.44;5039719;28;20029;-90
2022/05/18 01:53:12;;;;;;;10.13;7.40;;;;;;;16.81;67.23;101780.00;5044355;28;20289;-90
2022/05/18 01:55:38;;;;;;;11.45;7.95;;;;;;;16.88;67.91;101775.19;5043875;28;20060;-90
2022/05/18 01:58:05;;;;;;;9.30;8.18;;;;;;;16.76;68.56;101771.34;5042293;28;20428;-90
2022/05/18 02:00:32;;;;;;;10.15;8.13;;;;;;;16.79;67.33;101780.09;5041853;28;20492;-90
2022/05/18 02:02:58;;;;;;;11.10;7.57;;;;;;;16.83;67.67;101778.09;5038971;28;20419;-90
2022/05/18 02:05:24;;;;;;;8.85;7.95;;;;;;;16.68;68.15;101776.19;5041389;28;20044;-90
2022/05/18 02:07:49;;;;;;;11.90;8.48;;;;;;;16.54;68.40;101777.75;5039955;28;20025;-90
2022/05/18 02:10:14;;;;;;;9.55;6.50;;;;;;;16.52;67.57;101776.09;5043160;28;20036;-90
2022/05/18 02:12:40;;;;;;;8.63;7.10;;;;;;;16.63;67.53;101778.22;5042695;28;20043;-90
2022/05/18 02:15:06;;;;;;;10.48;7.38;;;;;;;16.66;68.82;101770.94;5040504;28;20486;-90
2022/05/18 02:17:33;;;;;;;10.30;8.48;;;;;;;16.67;69.70;101780.66;5041210;28;20024;-89
2022/05/18 02:20:00;;;;;;;12.30;8.52;;;;;;;16.50;70.54;101776.16;5041222;28;20411;-89
2022/05/18 02:22:25;;;;;;;9.30;7.35;;;;;;;16.50;68.13;101772.63;5041748;28;20028;-89
2022/05/18 02:24:51;;;;;;;8.13;7.20;;;;;;;16.59;67.97;101774.84;5041969;28;20033;-89
2022/05/18 02:27:17;;;;;;;11.38;7.93;;;;;;;16.47;69.06;101778.16;5041578;28;20048;-90
2022/05/18 02:29:42;;;;;;;11.35;7.50;;;;;;;16.37;70.03;101767.06;5042214;28;20733;-89
2022/05/18 02:32:09;;;;;;;9.73;7.72;;;;;;;16.44;69.08;101767.59;5039866;28;20024;-90
2022/05/18 02:34:34;;;;;;;10.88;7.85;;;;;;;16.57;68.36;101766.91;5041195;28;20033;-90
2022/05/18 02:36:59;;;;;;;12.50;7.95;;;;;;;16.66;68.93;101765.59;5041294;28;20024;-89
2022/05/18 02:39:25;;;;;;;10.48;8.18;;;;;;;16.80;68.35;101767.59;5043137;28;20017;-90
2022/05/18 02:41:50;;;;;;;10.30;7.35;;;;;;;16.74;69.60;101768.78;5039718;28;20103;-90
2022/05/18 02:44:19;;;;;;;10.30;7.78;;;;;;;16.75;69.84;101778.50;5039508;28;20400;-89
2022/05/18 02:46:45;;;;;;;13.45;8.45;;;;;;;16.65;70.27;101769.22;5073818;28;20052;-90
2022/05/18 02:49:11;;;;;;;10.75;8.00;;;;;;;16.57;70.59;101768.72;5059141;28;20060;-90
2022/05/18 02:51:38;;;;;;;12.05;7.72;;;;;;;16.65;70.59;101773.69;5076336;28;20109;-90
2022/05/18 02:56:05;;;;;;;12.70;7.97;;;;;;;16.71;69.82;101763.56;5063893;28;20184;-90
2022/05/18 02:56:49;;;;;;;10.82;7.72;;;;;;;16.76;70.22;101777.56;5074880;28;20047;-89
2022/05/18 02:59:15;;;;;;;10.95;7.90;;;;;;;16.68;70.90;101785.06;5059966;28;20013;-90
2022/05/18 03:01:41;;;;;;;9.23;7.57;;;;;;;16.75;68.79;101783.00;5063837;28;20475;-90
2022/05/18 03:04:06;;;;;;;11.80;7.45;;;;;;;16.82;69.21;101774.56;5073153;28;20028;-90
2022/05/18 03:06:31;;;;;;;10.95;7.45;;;;;;;16.86;68.72;101780.63;5066167;28;20074;-90
2022/05/18 03:08:57;;;;;;;11.05;7.55;;;;;;;16.83;69.21;101778.09;5076471;28;20502;-90
2022/05/18 03:11:22;;;;;;;10.13;8.25;;;;;;;16.86;69.43;101777.94;5062417;28;20109;-90
2022/05/18 03:13:48;;;;;;;10.63;6.93;;;;;;;16.77;69.39;101786.44;5059668;28;20551;-90
2022/05/18 03:16:13;;;;;;;11.65;7.57;;;;;;;16.64;70.26;101783.47;5076306;28;20793;-89
2022/05/18 03:18:38;;;;;;;13.07;7.63;;;;;;;16.59;70.40;101793.53;5079653;28;20107;-90
2022/05/18 03:23:48;;;;;;;13.13;7.15;;;;;;;16.62;69.75;101788.03;5078737;28;20529;-89
2022/05/18 03:26:16;;;;;;;15.70;8.40;;;;;;;16.67;69.77;101796.69;5075789;28;20020;-89
2022/05/18 03:28:44;;;;;;;14.38;7.93;;;;;;;16.62;69.71;101796.06;5058997;28;20396;-90
2022/05/18 03:31:10;;;;;;;10.38;7.40;;;;;;;16.65;69.88;101800.41;5067921;28;20032;-89
2022/05/18 03:33:37;;;;;;;9.90;7.72;;;;;;;16.63;70.47;101805.78;5063330;28;20040;-89
2022/05/18 03:36:03;;;;;;;13.60;7.68;;;;;;;16.64;69.79;101804.84;5064806;28;20036;-89
2022/05/18 03:38:29;;;;;;;12.60;7.78;;;;;;;16.59;70.25;101804.22;5061585;28;20914;-89
2022/05/18 03:40:54;;;;;;;9.80;7.80;;;;;;;16.59;70.07;101802.41;5075836;28;20032;-90
2022/05/18 03:43:20;;;;;;;13.07;8.38;;;;;;;16.70;70.14;101811.72;5064239;28;20506;-90
2022/05/18 03:45:46;;;;;;;12.10;8.15;;;;;;;16.85;69.98;101815.44;5074566;28;20097;-90
2022/05/18 03:48:13;;;;;;;13.43;8.43;;;;;;;16.86;69.84;101823.34;5064535;28;20112;-90
2022/05/18 03:50:41;;;;;;;12.38;8.73;;;;;;;16.87;70.32;101814.41;5058993;28;20032;-90
2022/05/18 03:53:07;;;;;;;13.35;9.15;;;;;;;16.86;70.31;101817.16;5073454;28;20490;-91
2022/05/18 03:55:33;;;;;;;14.05;9.07;;;;;;;16.83;70.52;101820.84;5064880;28;20142;-89
2022/05/18 03:57:58;;;;;;;12.25;8.73;;;;;;;16.77;70.88;101816.66;5076525;28;20439;-90
2022/05/18 04:00:24;;;;;;;11.68;8.70;;;;;;;16.78;70.86;101826.41;5075212;28;20032;-90
2022/05/18 04:02:52;;;;;;;13.48;10.02;;;;;;;16.71;71.67;101824.97;5076067;28;20425;-90
2022/05/18 04:05:22;;;;;;;17.45;9.38;;;;;;;16.67;71.14;101827.88;5056607;28;20035;-90
2022/05/18 04:07:48;;;;;;;15.05;9.05;;;;;;;16.75;71.01;101828.38;5075298;28;21252;-90
2022/05/18 04:10:14;;;;;;;13.10;9.65;;;;;;;16.71;70.53;101819.63;5073817;28;20490;-90
2022/05/18 04:12:41;;;;;;;13.20;9.68;;;;;;;16.71;70.98;101813.44;5058370;28;20023;-90
2022/05/18 04:15:07;;;;;;;14.23;9.63;;;;;;;16.71;71.35;101816.09;5056937;28;20509;-89
2022/05/18 04:17:32;;;;;;;11.93;9.77;;;;;;;16.75;71.16;101810.56;5078059;28;20043;-89
2022/05/18 04:19:57;;;;;;;13.32;10.30;;;;;;;16.78;70.73;101809.53;5061878;28;20363;-90
2022/05/18 04:22:26;;;;;;;13.55;9.55;;;;;;;16.81;71.00;101812.91;5076615;28;20390;-90
2022/05/18 04:24:52;;;;;;;14.88;9.60;;;;;;;16.87;70.82;101813.53;5077435;28;20078;-89
2022/05/18 04:27:17;;;;;;;17.27;10.15;;;;;;;16.99;70.84;101821.78;5075467;28;20448;-89
2022/05/18 04:29:42;;;;;;;17.63;9.70;;;;;;;17.13;70.54;101823.75;5076879;28;20038;-89
2022/05/18 04:32:08;;;;;;;11.73;9.38;;;;;;;17.22;69.94;101825.94;5065053;28;20063;-89
2022/05/18 04:34:34;;;;;;;16.70;10.60;;;;;;;17.31;70.49;101825.47;5069407;28;20386;-89
2022/05/18 04:37:00;;;;;;;13.73;9.40;;;;;;;17.45;70.21;101839.91;5081622;28;20036;-89
2022/05/18 04:39:25;;;;;;;11.55;8.80;;;;;;;17.50;70.26;101825.34;5064785;28;20024;-90
2022/05/18 04:41:50;;;;;;;13.70;9.68;;;;;;;17.60;69.83;101828.41;5068171;28;20462;-90
2022/05/18 04:44:16;;;;;;;13.30;9.45;;;;;;;17.72;70.11;101837.56;5081245;28;20489;-90
2022/05/18 04:46:41;;;;;;;13.98;9.80;;;;;;;17.79;69.20;101839.84;5064600;28;20052;-89
2022/05/18 04:49:07;;;;;;;13.02;9.57;;;;;;;17.84;68.88;101832.44;5067523;28;20204;-90
2022/05/18 04:51:33;;;;;;;13.00;8.77;;;;;;;17.99;69.11;101829.88;5081708;28;20035;-90
2022/05/18 04:53:59;;;;;;;12.98;9.05;;;;;;;18.03;68.92;101836.78;5059863;28;20062;-89
2022/05/18 04:56:25;;;;;;;14.10;9.13;;;;;;;18.15;67.80;101852.16;5077197;28;20062;-89
2022/05/18 04:58:51;;;;;;;11.40;8.80;;;;;;;18.22;68.00;101853.53;5078754;28;20020;-89
2022/05/18 05:01:16;;;;;;;11.52;8.95;;;;;;;18.21;67.38;101846.47;5076366;28;20032;-89
2022/05/18 05:03:41;;;;;;;12.45;8.38;;;;;;;18.24;67.66;101848.97;5065096;28;20051;-90
2022/05/18 05:06:07;;;;;;;11.88;8.98;;;;;;;18.31;67.44;101866.41;5068988;28;20704;-89
2022/05/18 05:08:34;;;;;;;10.55;8.65;;;;;;;18.36;66.74;101860.78;5065250;28;20119;-89
2022/05/18 05:11:00;;;;;;;11.57;9.10;;;;;;;18.45;67.61;101870.97;5062551;28;20023;-89
2022/05/18 05:13:25;;;;;;;12.32;8.85;;;;;;;18.55;67.50;101865.97;5077713;28;20025;-89
2022/05/18 05:15:54;;;;;;;11.88;8.38;;;;;;;18.64;66.89;101859.22;5070169;28;20106;-89
2022/05/18 05:18:20;;;;;;;12.80;9.07;;;;;;;18.80;66.53;101860.97;5064873;28;20027;-89
2022/05/18 05:20:45;;;;;;;10.43;8.93;;;;;;;18.98;66.83;101864.38;5076596;28;20073;-89
2022/05/18 05:23:11;;;;;;;11.45;9.00;;;;;;;19.16;65.17;101861.53;5078685;28;20047;-90
2022/05/18 05:25:36;;;;;;;10.15;7.65;;;;;;;19.34;64.09;101872.00;5063424;28;20035;-89
2022/05/18 05:28:01;;;;;;;8.73;7.93;;;;;;;19.57;63.83;101875.13;5079510;28;20544;-89
2022/05/18 05:30:27;;;;;;;10.90;7.18;;;;;;;19.67;63.00;101870.06;5059503;28;20024;-89
2022/05/18 05:32:52;;;;;;;11.18;7.47;;;;;;;19.87;63.19;101877.75;5059164;28;20024;-89
2022/05/18 05:35:18;;;;;;;9.75;7.15;;;;;;;19.98;62.38;101877.09;5080010;28;20435;-89
2022/05/18 05:37:43;;;;;;;10.10;6.82;;;;;;;20.03;62.33;101870.44;5080126;28;20537;-89
2022/05/18 05:40:09;;;;;;;8.80;6.53;;;;;;;20.14;61.78;101875.13;5079131;28;20035;-89
2022/05/18 05:42:36;;;;;;;10.40;7.00;;;;;;;20.16;62.59;101875.91;5076195;28;20039;-89
2022/05/18 05:45:02;;;;;;;9.70;6.25;;;;;;;20.17;61.67;101879.47;5077632;28;20076;-89
2022/05/18 05:47:27;;;;;;;9.30;6.43;;;;;;;20.11;63.26;101872.66;5070256;28;20051;-89
2022/05/18 05:49:52;;;;;;;7.47;6.53;;;;;;;20.17;61.93;101883.00;5079647;28;20094;-89
2022/05/18 05:52:18;;;;;;;8.35;5.68;;;;;;;20.23;61.87;101887.09;5077607;28;20036;-89
2022/05/18 05:54:44;;;;;;;8.30;5.60;;;;;;;20.33;60.64;101886.44;5068305;28;20085;-89
2022/05/18 05:57:09;;;;;;;7.90;5.43;;;;;;;20.44;60.70;101896.47;5079264;28;20547;-89
2022/05/18 05:59:37;;;;;;;8.75;4.85;;;;;;;20.59;60.11;101894.66;5080194;28;20119;-89
2022/05/18 06:02:08;;;;;;;6.63;5.05;;;;;;;20.80;59.84;101897.75;5079035;28;20097;-89
2022/05/18 06:04:35;;;;;;;9.95;4.85;;;;;;;21.00;59.84;101904.50;5063091;28;20032;-89
2022/05/18 06:07:02;;;;;;;9.90;5.20;;;;;;;21.15;57.20;101908.81;5063977;28;20121;-89
2022/05/18 06:09:27;;;;;;;10.90;5.32;;;;;;;21.30;57.62;101905.06;5059753;28;20035;-89
2022/05/18 06:11:53;;;;;;;10.20;4.75;;;;;;;21.41;56.02;101907.09;5059570;28;20028;-89
2022/05/18 06:14:19;;;;;;;10.18;5.15;;;;;;;21.45;55.70;101905.03;5075613;28;20121;-89
2022/05/18 06:16:46;;;;;;;8.93;5.10;;;;;;;21.51;55.67;101901.94;5077603;28;20036;-89
2022/05/18 06:19:13;;;;;;;8.68;4.88;;;;;;;21.57;54.90;101909.56;5059724;28;20066;-89
2022/05/18 06:21:39;;;;;;;7.05;4.90;;;;;;;21.60;55.18;101909.38;5078559;28;20485;-90
2022/05/18 06:24:05;;;;;;;7.78;4.68;;;;;;;21.67;55.25;101915.16;5060573;28;20463;-90
2022/05/18 06:26:30;;;;;;;10.23;4.78;;;;;;;21.62;55.13;101916.34;5059647;28;20028;-90
2022/05/18 06:28:56;;;;;;;6.72;4.60;;;;;;;21.63;56.30;101918.06;5062843;28;20032;-90
2022/05/18 06:31:21;;;;;;;9.10;4.80;;;;;;;21.62;56.55;101921.72;5059127;28;20047;-90
2022/05/18 06:33:47;;;;;;;5.88;4.60;;;;;;;21.71;56.39;101928.31;5060197;28;20033;-89
2022/05/18 06:36:12;;;;;;;10.52;5.13;;;;;;;21.77;55.61;101921.63;5076927;28;20020;-89
2022/05/18 06:38:37;;;;;;;10.10;5.00;;;;;;;21.82;54.35;101935.63;5079117;28;20111;-89
2022/05/18 06:41:21;;;;;;;10.70;6.00;;;;;;;21.87;54.25;101939.75;5059630;28;20112;-89
2022/05/18 06:43:55;;;;;;;11.65;5.13;;;;;;;21.98;53.86;101935.41;5067213;28;20139;-88
2022/05/18 06:46:22;;;;;;;15.68;5.30;;;;;;;22.10;54.21;101945.31;5065574;28;20051;-89
2022/05/18 06:48:48;;;;;;;11.02;5.82;;;;;;;22.18;53.31;101942.97;5070545;28;20036;-88
2022/05/18 06:51:17;;;;;;;10.63;5.18;;;;;;;22.24;53.61;101947.91;5058019;28;20032;-89
2022/05/18 06:53:43;;;;;;;9.90;4.68;;;;;;;22.32;52.79;101950.91;5068251;28;20024;-89
2022/05/18 06:56:09;;;;;;;7.75;5.35;;;;;;;22.38;52.04;101945.09;5070861;28;20465;-89
2022/05/18 06:58:34;;;;;;;7.80;5.15;;;;;;;22.44;52.07;101937.53;5061460;28;20025;-89
2022/05/18 07:01:01;;;;;;;6.50;4.75;;;;;;;22.60;52.46;101947.06;5063054;28;20028;-88
2022/05/18 07:03:26;;;;;;;8.93;5.05;;;;;;;22.60;50.10;101948.91;5070085;28;20461;-89
2022/05/18 07:05:52;;;;;;;9.02;5.45;;;;;;;22.64;50.97;101950.41;5061425;28;20123;-89
2022/05/18 07:08:17;;;;;;;9.18;5.40;;;;;;;22.64;49.75;101945.88;5057969;28;20467;-89
2022/05/18 07:10:42;;;;;;;16.20;6.38;;;;;;;22.68;49.98;101957.31;5065096;28;20028;-88
2022/05/18 07:13:07;;;;;;;10.25;5.75;;;;;;;22.68;50.12;101965.38;5066843;28;20116;-89
2022/05/18 07:15:36;;;;;;;13.27;6.25;;;;;;;22.68;50.69;101965.38;5073008;28;20028;-88
2022/05/18 07:18:01;;;;;;;10.93;6.72;;;;;;;22.71;49.75;101967.88;5064551;28;20031;-88
2022/05/18 07:20:27;;;;;;;14.32;8.07;;;;;;;22.82;49.41;101967.94;5065529;28;20025;-88
2022/05/18 07:22:53;;;;;;;15.38;8.85;;;;;;;22.95;49.30;101969.75;5066824;28;20024;-87
2022/05/18 07:25:18;;;;;;;14.27;8.35;;;;;;;23.05;50.25;101966.25;5066010;28;20435;-88
2022/05/18 07:27:43;;;;;;;12.43;8.23;;;;;;;23.26;50.68;101977.25;5066205;28;20169;-89
2022/05/18 07:30:09;;;;;;;16.60;9.25;;;;;;;23.34;51.02;101974.84;5063216;28;20029;-88
2022/05/18 07:32:35;;;;;;;18.10;10.40;;;;;;;23.58;49.61;101973.94;5060688;28;20060;-88
2022/05/18 07:35:00;;;;;;;14.60;9.75;;;;;;;23.82;49.54;101972.06;5068195;28;20063;-87
2022/05/18 07:37:26;;;;;;;13.52;9.75;;;;;;;24.02;48.96;101978.59;5068899;28;20382;-87
2022/05/18 07:39:51;;;;;;;15.88;8.70;;;;;;;24.15;49.41;101981.19;5064669;28;20429;-87
2022/05/18 07:42:16;;;;;;;10.68;7.85;;;;;;;24.22;49.52;101978.88;5070714;28;20066;-87
2022/05/18 07:44:41;;;;;;;10.35;7.82;;;;;;;24.07;49.53;101964.75;5068669;28;20037;-87
2022/05/18 07:47:08;;;;;;;15.77;8.07;;;;;;;24.05;50.24;101980.19;5058936;28;20769;-87
2022/05/18 07:49:39;;;;;;;11.95;8.20;;;;;;;24.03;50.20;101976.75;5059633;28;20056;-87
2022/05/18 07:52:06;;;;;;;14.80;8.68;;;;;;;23.95;50.23;101980.06;5069630;28;20044;-87
2022/05/18 07:54:32;;;;;;;16.65;8.57;;;;;;;23.98;50.10;101987.94;5071322;28;20111;-87
2022/05/18 07:56:57;;;;;;;10.52;7.30;;;;;;;24.20;51.44;101987.06;5063005;28;20383;-87
2022/05/18 07:59:22;;;;;;;18.50;8.60;;;;;;;24.44;50.51;101989.72;5059976;28;20030;-87
2022/05/18 08:01:48;;;;;;;12.65;7.63;;;;;;;25.00;48.41;101991.47;5075152;28;20066;-87
2022/05/18 08:04:14;;;;;;;13.50;7.75;;;;;;;25.84;46.34;101989.78;5072154;28;20111;-86
2022/05/18 08:06:39;;;;;;;8.60;7.38;;;;;;;26.19;44.81;101992.09;5083157;28;20617;-87
2022/05/18 08:09:05;;;;;;;13.55;8.70;;;;;;;26.00;45.64;101994.72;5056344;28;20036;-87
2022/05/18 08:16:58;;;;;;;11.77;8.02;;;;;;;25.62;46.52;102009.69;5078900;28;20551;-87
2022/05/18 08:19:23;;;;;;;10.73;7.72;;;;;;;25.59;46.79;102010.81;5075792;28;20024;-86
2022/05/18 08:21:49;;;;;;;14.02;8.70;;;;;;;26.35;45.41;102007.91;5068370;28;20373;-86
2022/05/18 08:24:15;;;;;;;14.23;8.68;;;;;;;27.33;43.16;102001.75;5085922;28;20028;-86
2022/05/18 08:26:41;;;;;;;12.70;8.25;;;;;;;27.78;42.44;101996.59;5084171;28;20539;-85
2022/05/18 08:29:08;;;;;;;12.65;7.80;;;;;;;28.50;40.66;101999.69;5085346;28;20544;-86
2022/05/18 08:31:33;;;;;;;9.65;7.38;;;;;;;29.21;38.92;102002.56;5081733;28;20467;-86
2022/05/18 08:33:58;;;;;;;10.70;7.47;;;;;;;29.68;38.09;101996.88;5069245;28;20052;-86
2022/05/18 08:36:25;;;;;;;12.50;7.97;;;;;;;29.83;37.49;102008.91;5082403;28;20139;-86
2022/05/18 08:38:51;;;;;;;14.48;8.02;;;;;;;29.71;37.88;102004.75;5062804;28;20060;-88
2022/05/18 08:41:21;;;;;;;13.65;8.95;;;;;;;29.92;37.40;102012.53;5076600;28;20040;-87
2022/05/18 08:43:50;;;;;;;10.05;7.88;;;;;;;30.28;37.26;102012.47;5079438;28;20031;-88
2022/05/18 08:46:53;;;;;;;11.45;8.52;;;;;;;30.78;36.93;102009.81;5082235;28;20431;-87
2022/05/18 08:49:29;;;;;;;13.68;8.50;;;;;;;30.83;36.22;102015.63;5080692;28;20024;-87
2022/05/18 08:52:13;;;;;;;15.88;9.02;;;;;;;30.99;35.60;102014.81;5060969;28;20028;-87
2022/05/18 08:54:52;;;;;;;14.50;8.55;;;;;;;30.97;36.28;102009.53;5061686;28;20042;-87
2022/05/18 08:57:29;;;;;;;12.50;9.02;;;;;;;30.99;36.45;102010.19;5066603;28;20034;-87
2022/05/18 08:59:58;;;;;;;11.13;8.15;;;;;;;30.74;37.02;102012.00;5080876;28;20379;-86
2022/05/18 09:02:29;;;;;;;12.52;8.32;;;;;;;30.84;36.53;102013.75;5055286;28;20028;-87
2022/05/18 09:05:03;;;;;;;10.27;8.35;;;;;;;30.95;36.70;102013.44;5071895;28;20061;-87
2022/05/18 09:07:36;;;;;;;10.75;8.15;;;;;;;31.36;36.30;102008.91;5080064;28;20376;-86
2022/05/18 09:10:25;;;;;;;11.48;7.82;;;;;;;31.66;35.98;102014.72;5079507;28;20429;-87
2022/05/18 09:12:51;;;;;;;12.07;8.65;;;;;;;31.19;37.13;102013.47;5074964;28;20103;-86
2022/05/18 09:15:34;;;;;;;8.90;6.63;;;;;;;31.08;36.39;102013.81;5075954;28;20036;-87
2022/05/18 09:18:07;;;;;;;7.35;4.88;;;;;;;31.09;34.63;102015.50;5078144;28;20489;-87
2022/05/18 09:20:37;;;;;;;8.93;4.93;;;;;;;30.98;35.80;102010.38;5066725;28;20513;-87
2022/05/18 09:23:36;;;;;;;6.25;3.90;;;;;;;31.01;37.19;102012.78;5075828;28;20111;-87
2022/05/18 09:26:17;;;;;;;10.20;5.05;;;;;;;31.36;35.91;102008.91;5075764;28;20028;-86
2022/05/18 09:28:50;;;;;;;6.97;4.38;;;;;;;31.57;35.62;102008.44;5083152;28;20115;-87
2022/05/18 09:31:25;;;;;;;8.52;5.47;;;;;;;31.61;35.61;102012.50;5061302;28;20024;-86
2022/05/18 09:34:21;;;;;;;7.40;5.55;;;;;;;31.52;35.44;102015.41;5083956;28;20040;-87
2022/05/18 09:37:41;;;;;;;5.65;4.32;;;;;;;31.09;36.44;102022.84;5071508;28;20686;-87
2022/05/18 09:40:34;;;;;;;6.57;4.80;;;;;;;30.31;37.19;102014.84;5018123;28;20029;-88
2022/05/18 09:43:09;;;;;;;8.32;5.45;;;;;;;30.03;37.23;102017.75;5019143;28;20506;-88
2022/05/18 09:45:39;;;;;;;11.63;6.35;;;;;;;29.75;37.76;102003.38;5053138;28;20135;-88
2022/05/18 09:48:40;;;;;;;9.82;6.07;;;;;;;30.11;37.61;102016.94;5061127;28;20028;-89
2022/05/18 09:51:08;;;;;;;9.65;6.68;;;;;;;29.87;36.95;102017.63;5065724;28;20388;-89
2022/05/18 09:53:34;;;;;;;10.75;6.97;;;;;;;29.96;38.13;102006.59;5073755;28;20429;-89
2022/05/18 09:55:59;;;;;;;7.80;5.00;;;;;;;30.20;36.80;102014.09;5084251;28;20038;-89
2022/05/18 09:58:38;;;;;;;6.03;4.45;;;;;;;30.63;37.15;102017.72;5064475;28;21757;-88
2022/05/18 10:09:36;;;;;;;5.47;3.63;;;;;;;31.25;34.40;102014.69;5079771;28;20047;-87
2022/05/18 10:12:11;;;;;;;6.70;3.60;;;;;;;31.56;34.67;102014.03;5079581;28;20070;-87
2022/05/18 10:14:36;;;;;;;6.28;4.07;;;;;;;31.40;33.28;102021.22;5074923;28;20044;-88
2022/05/18 10:17:07;;;;;;;8.15;4.28;;;;;;;31.58;33.77;102017.47;5073555;28;20022;-87
2022/05/18 10:19:36;;;;;;;5.25;3.22;;;;;;;31.74;33.66;102017.47;5067780;28;20028;-88
2022/05/18 10:22:05;;;;;;;4.93;3.28;;;;;;;32.02;33.52;102014.38;5079409;28;20036;-87
2022/05/18 10:24:51;;;;;;;6.45;3.08;;;;;;;32.15;33.66;102014.69;5076584;28;20051;-89
2022/05/18 10:27:18;;;;;;;5.70;3.28;;;;;;;31.88;33.08;102010.47;5058206;28;20545;-89
2022/05/18 10:29:51;;;;;;;6.00;3.38;;;;;;;31.73;33.40;102002.09;5054731;28;20655;-88
2022/05/18 10:32:27;;;;;;;7.95;3.20;;;;;;;31.59;33.55;102011.84;5062540;28;20032;-88
2022/05/18 10:34:54;;;;;;;5.90;3.08;;;;;;;31.73;35.31;102005.66;5079344;28;20028;-88
2022/05/18 10:37:33;;;;;;;6.68;3.00;;;;;;;31.75;33.63;102011.81;5062279;28;20549;-88
2022/05/18 10:40:08;;;;;;;3.47;2.95;;;;;;;31.97;33.22;102010.28;5055095;28;20031;-87
2022/05/18 10:42:53;;;;;;;4.93;3.40;;;;;;;31.78;32.61;101998.84;5077480;28;20331;-87
2022/05/18 10:45:25;;;;;;;7.43;4.88;;;;;;;31.54;33.10;101999.72;5059519;28;20835;-88
2022/05/18 10:47:51;;;;;;;7.57;4.05;;;;;;;31.33;33.59;102000.19;5078947;28;20452;-88
2022/05/18 10:50:25;;;;;;;5.75;3.13;;;;;;;31.63;32.85;102001.41;5080888;28;20086;-88
2022/05/18 10:53:00;;;;;;;6.38;3.30;;;;;;;32.11;33.49;102007.84;5079330;28;21975;-88
2022/05/18 10:55:29;;;;;;;5.75;2.70;;;;;;;32.23;32.08;101987.31;5074902;28;20039;-88
2022/05/18 10:57:57;;;;;;;5.15;3.00;;;;;;;32.52;32.79;101988.59;5079333;28;20126;-89
2022/05/18 11:00:28;;;;;;;4.28;2.78;;;;;;;32.37;31.68;101994.81;5078432;28;20378;-89
2022/05/18 11:03:12;;;;;;;6.63;3.30;;;;;;;32.82;32.45;101992.34;5064487;28;20508;-88
2022/05/18 11:05:45;;;;;;;4.45;3.30;;;;;;;32.71;30.73;101993.63;5079627;28;20676;-89
2022/05/18 11:08:17;;;;;;;4.50;3.03;;;;;;;32.54;32.09;101989.25;5078544;28;20479;-89
2022/05/18 11:10:52;;;;;;;7.20;3.10;;;;;;;32.37;31.15;101992.09;5062404;28;20125;-88
2022/05/18 11:13:20;;;;;;;5.80;2.60;;;;;;;32.57;30.63;101988.91;5065178;28;20470;-88
2022/05/18 11:16:20;;;;;;;6.80;2.58;;;;;;;32.91;31.57;101991.31;5076273;28;20039;-88
2022/05/18 11:18:56;;;;;;;6.82;2.50;;;;;;;33.13;30.07;101989.63;5079243;28;20036;-88
2022/05/18 11:21:42;;;;;;;4.70;2.47;;;;;;;33.33;30.93;101984.50;5075502;28;20020;-88
2022/05/18 11:24:37;;;;;;;6.30;2.83;;;;;;;33.61;30.24;101982.06;5074770;28;20118;-88
2022/05/18 11:27:25;;;;;;;7.00;3.58;;;;;;;33.40;30.14;101989.06;5064714;28;20032;-88
2022/05/18 11:30:07;;;;;;;4.43;3.33;;;;;;;33.23;30.65;101991.09;5078234;28;20048;-88
2022/05/18 11:33:00;;;;;;;5.47;2.92;;;;;;;33.15;30.87;101987.56;5060893;28;20499;-88
2022/05/18 11:35:36;;;;;;;5.88;3.35;;;;;;;33.39;30.15;101981.91;5061148;28;20032;-88
2022/05/18 11:38:20;;;;;;;5.95;3.03;;;;;;;33.51;29.95;101974.94;5063192;28;20691;-89
2022/05/18 11:41:05;;;;;;;4.85;3.03;;;;;;;33.51;30.10;101977.69;5080276;28;20127;-89
2022/05/18 11:44:03;;;;;;;4.88;3.28;;;;;;;33.44;29.41;101973.16;5078945;28;20028;-89
2022/05/18 11:46:51;;;;;;;6.22;3.20;;;;;;;34.03;29.78;101975.16;5076007;28;20096;-89
2022/05/18 11:49:23;;;;;;;7.57;3.45;;;;;;;33.95;29.11;101967.88;5080070;28;20116;-89